sensor_id;sensor_type;location;lat;lon;timestamp;pressure;altitude;pressure_sealevel;temperature;humidity
63715;BME280;49858;48.956;9.076;2024-02-23T00:01:04;96782.69;;;8.27;100.00
63715;BME280;49858;48.956;9.076;2024-02-23T00:03:33;96774.16;;;8.54;100.00
63715;BME280;49858;48.956;9.076;2024-02-23T00:06:03;96774.16;;;8.47;100.00
63715;BME280;49858;48.956;9.076;2024-02-23T00:08:31;96772.16;;;8.33;100.00
63715;BME280;49858;48.956;9.076;2024-02-23T00:10:59;96772.09;;;8.11;100.00
63715;BME280;49858;48.956;9.076;2024-02-23T00:13:27;96764.38;;;8.38;100.00
63715;BME280;49858;48.956;9.076;2024-02-23T00:15:55;96779.63;;;8.50;100.00
63715;BME280;49858;48.956;9.076;2024-02-23T00:18:24;96791.28;;;8.18;100.00
63715;BME280;49858;48.956;9.076;2024-02-23T00:20:52;96763.94;;;8.33;100.00
63715;BME280;49858;48.956;9.076;2024-02-23T00:23:20;96781.13;;;8.30;100.00
63715;BME280;49858;48.956;9.076;2024-02-23T00:25:48;96771.81;;;8.38;100.00
63715;BME280;49858;48.956;9.076;2024-02-23T00:28:15;96781.94;;;8.30;100.00
63715;BME280;49858;48.956;9.076;2024-02-23T00:30:43;96772.13;;;8.22;100.00
63715;BME280;49858;48.956;9.076;2024-02-23T00:33:11;96790.06;;;8.09;100.00
63715;BME280;49858;48.956;9.076;2024-02-23T00:35:40;96790.09;;;8.23;100.00
63715;BME280;49858;48.956;9.076;2024-02-23T00:38:08;96801.97;;;8.59;100.00
63715;BME280;49858;48.956;9.076;2024-02-23T00:40:36;96831.56;;;8.11;100.00
63715;BME280;49858;48.956;9.076;2024-02-23T00:43:04;96817.94;;;8.29;100.00
63715;BME280;49858;48.956;9.076;2024-02-23T00:45:32;96816.34;;;8.20;100.00
63715;BME280;49858;48.956;9.076;2024-02-23T00:48:00;96815.16;;;8.25;100.00
63715;BME280;49858;48.956;9.076;2024-02-23T00:50:28;96804.56;;;8.16;100.00
63715;BME280;49858;48.956;9.076;2024-02-23T00:52:57;96804.22;;;8.25;100.00
63715;BME280;49858;48.956;9.076;2024-02-23T00:55:25;96824.47;;;8.03;100.00
63715;BME280;49858;48.956;9.076;2024-02-23T00:57:53;96837.13;;;8.36;100.00
63715;BME280;49858;48.956;9.076;2024-02-23T01:00:21;96812.47;;;8.36;100.00
63715;BME280;49858;48.956;9.076;2024-02-23T01:02:50;96839.84;;;8.32;100.00
63715;BME280;49858;48.956;9.076;2024-02-23T01:05:17;96842.56;;;8.32;100.00
63715;BME280;49858;48.956;9.076;2024-02-23T01:07:45;96848.00;;;8.11;100.00
63715;BME280;49858;48.956;9.076;2024-02-23T01:10:15;96882.38;;;8.01;100.00
63715;BME280;49858;48.956;9.076;2024-02-23T01:12:43;96868.63;;;7.94;100.00
63715;BME280;49858;48.956;9.076;2024-02-23T01:15:11;96857.78;;;8.15;100.00
63715;BME280;49858;48.956;9.076;2024-02-23T01:17:38;96852.22;;;7.90;100.00
63715;BME280;49858;48.956;9.076;2024-02-23T01:20:07;96831.19;;;8.23;100.00
63715;BME280;49858;48.956;9.076;2024-02-23T01:22:35;96839.28;;;7.94;100.00
63715;BME280;49858;48.956;9.076;2024-02-23T01:25:04;96819.44;;;8.12;100.00
63715;BME280;49858;48.956;9.076;2024-02-23T01:27:33;96837.38;;;8.02;100.00
63715;BME280;49858;48.956;9.076;2024-02-23T01:30:01;96849.41;;;7.83;100.00
63715;BME280;49858;48.956;9.076;2024-02-23T01:32:30;96860.41;;;7.94;100.00
63715;BME280;49858;48.956;9.076;2024-02-23T01:34:57;96853.75;;;7.88;100.00
63715;BME280;49858;48.956;9.076;2024-02-23T01:37:25;96860.41;;;7.94;100.00
63715;BME280;49858;48.956;9.076;2024-02-23T01:39:53;96861.31;;;8.23;100.00
63715;BME280;49858;48.956;9.076;2024-02-23T01:42:21;96876.94;;;8.12;100.00
63715;BME280;49858;48.956;9.076;2024-02-23T01:44:51;96862.84;;;8.10;100.00
63715;BME280;49858;48.956;9.076;2024-02-23T01:47:19;96856.28;;;8.36;100.00
63715;BME280;49858;48.956;9.076;2024-02-23T01:49:47;96851.13;;;8.16;100.00
63715;BME280;49858;48.956;9.076;2024-02-23T01:52:15;96861.63;;;8.00;100.00
63715;BME280;49858;48.956;9.076;2024-02-23T01:54:44;96880.16;;;8.28;100.00
63715;BME280;49858;48.956;9.076;2024-02-23T01:57:12;96876.28;;;8.40;100.00
63715;BME280;49858;48.956;9.076;2024-02-23T02:00:02;96889.34;;;7.95;100.00
63715;BME280;49858;48.956;9.076;2024-02-23T02:02:36;96879.59;;;7.94;100.00
63715;BME280;49858;48.956;9.076;2024-02-23T02:05:04;96879.69;;;8.15;100.00
63715;BME280;49858;48.956;9.076;2024-02-23T02:07:33;96888.53;;;7.84;100.00
63715;BME280;49858;48.956;9.076;2024-02-23T02:10:02;96884.91;;;7.69;100.00
63715;BME280;49858;48.956;9.076;2024-02-23T02:12:32;96875.31;;;8.04;100.00
63715;BME280;49858;48.956;9.076;2024-02-23T02:15:01;96907.56;;;7.66;100.00
63715;BME280;49858;48.956;9.076;2024-02-23T02:17:29;96898.50;;;7.55;100.00
63715;BME280;49858;48.956;9.076;2024-02-23T02:20:02;96897.44;;;7.70;100.00
63715;BME280;49858;48.956;9.076;2024-02-23T02:22:32;96896.84;;;7.39;100.00
63715;BME280;49858;48.956;9.076;2024-02-23T02:25:00;96934.34;;;7.42;100.00
63715;BME280;49858;48.956;9.076;2024-02-23T02:27:28;96913.88;;;7.22;100.00
63715;BME280;49858;48.956;9.076;2024-02-23T02:29:56;96914.69;;;7.26;100.00
63715;BME280;49858;48.956;9.076;2024-02-23T02:32:25;96911.09;;;7.63;100.00
63715;BME280;49858;48.956;9.076;2024-02-23T02:34:53;96913.22;;;7.36;100.00
63715;BME280;49858;48.956;9.076;2024-02-23T02:37:21;96904.72;;;7.52;100.00
63715;BME280;49858;48.956;9.076;2024-02-23T02:39:49;96912.34;;;7.28;100.00
63715;BME280;49858;48.956;9.076;2024-02-23T02:42:17;96909.53;;;7.65;100.00
63715;BME280;49858;48.956;9.076;2024-02-23T02:44:45;96899.91;;;7.93;100.00
63715;BME280;49858;48.956;9.076;2024-02-23T02:47:13;96903.81;;;7.33;100.00
63715;BME280;49858;48.956;9.076;2024-02-23T02:49:42;96894.56;;;7.52;100.00
63715;BME280;49858;48.956;9.076;2024-02-23T02:52:10;96896.53;;;7.48;100.00
63715;BME280;49858;48.956;9.076;2024-02-23T02:54:38;96884.25;;;7.86;100.00
63715;BME280;49858;48.956;9.076;2024-02-23T02:57:05;96892.28;;;7.61;100.00
63715;BME280;49858;48.956;9.076;2024-02-23T02:59:34;96900.81;;;7.49;100.00
63715;BME280;49858;48.956;9.076;2024-02-23T03:02:03;96907.16;;;7.64;100.00
63715;BME280;49858;48.956;9.076;2024-02-23T03:04:31;96917.25;;;7.53;100.00
63715;BME280;49858;48.956;9.076;2024-02-23T03:07:00;96903.31;;;7.76;100.00
63715;BME280;49858;48.956;9.076;2024-02-23T03:09:28;96915.78;;;7.66;100.00
63715;BME280;49858;48.956;9.076;2024-02-23T03:11:55;96912.22;;;7.58;100.00
63715;BME280;49858;48.956;9.076;2024-02-23T03:14:23;96919.84;;;7.35;100.00
63715;BME280;49858;48.956;9.076;2024-02-23T03:16:51;96893.06;;;7.62;100.00
63715;BME280;49858;48.956;9.076;2024-02-23T03:19:19;96897.66;;;7.43;100.00
63715;BME280;49858;48.956;9.076;2024-02-23T03:21:50;96897.97;;;7.38;100.00
63715;BME280;49858;48.956;9.076;2024-02-23T03:24:19;96906.19;;;7.35;100.00
63715;BME280;49858;48.956;9.076;2024-02-23T03:26:47;96896.31;;;7.23;100.00
63715;BME280;49858;48.956;9.076;2024-02-23T03:29:15;96882.03;;;7.44;100.00
63715;BME280;49858;48.956;9.076;2024-02-23T03:31:43;96871.13;;;7.51;100.00
63715;BME280;49858;48.956;9.076;2024-02-23T03:34:10;96876.09;;;7.38;100.00
63715;BME280;49858;48.956;9.076;2024-02-23T03:36:39;96891.78;;;7.45;100.00
63715;BME280;49858;48.956;9.076;2024-02-23T03:39:07;96894.41;;;7.31;100.00
63715;BME280;49858;48.956;9.076;2024-02-23T03:41:36;96891.66;;;7.27;100.00
63715;BME280;49858;48.956;9.076;2024-02-23T03:44:04;96875.53;;;7.15;100.00
63715;BME280;49858;48.956;9.076;2024-02-23T03:46:32;96864.66;;;7.22;100.00
63715;BME280;49858;48.956;9.076;2024-02-23T03:49:01;96883.91;;;7.36;100.00
63715;BME280;49858;48.956;9.076;2024-02-23T03:51:29;96915.44;;;7.23;100.00
63715;BME280;49858;48.956;9.076;2024-02-23T03:53:58;96892.88;;;7.33;100.00
63715;BME280;49858;48.956;9.076;2024-02-23T03:56:26;96889.47;;;7.51;100.00
63715;BME280;49858;48.956;9.076;2024-02-23T03:58:56;96908.03;;;7.24;100.00
63715;BME280;49858;48.956;9.076;2024-02-23T04:01:23;96909.38;;;7.44;100.00
63715;BME280;49858;48.956;9.076;2024-02-23T04:03:51;96917.78;;;7.21;100.00
63715;BME280;49858;48.956;9.076;2024-02-23T04:06:19;96921.88;;;7.45;100.00
63715;BME280;49858;48.956;9.076;2024-02-23T04:08:47;96934.13;;;7.62;100.00
63715;BME280;49858;48.956;9.076;2024-02-23T04:11:16;96915.06;;;7.21;100.00
63715;BME280;49858;48.956;9.076;2024-02-23T04:13:45;96901.41;;;7.80;100.00
63715;BME280;49858;48.956;9.076;2024-02-23T04:16:18;96903.91;;;7.48;100.00
63715;BME280;49858;48.956;9.076;2024-02-23T04:18:50;96912.94;;;7.48;100.00
63715;BME280;49858;48.956;9.076;2024-02-23T04:21:18;96928.88;;;7.42;100.00
63715;BME280;49858;48.956;9.076;2024-02-23T04:23:46;96926.25;;;7.09;100.00
63715;BME280;49858;48.956;9.076;2024-02-23T04:26:14;96914.97;;;7.58;100.00
63715;BME280;49858;48.956;9.076;2024-02-23T04:28:42;96912.59;;;7.57;100.00
63715;BME280;49858;48.956;9.076;2024-02-23T04:31:10;96916.22;;;7.20;100.00
63715;BME280;49858;48.956;9.076;2024-02-23T04:33:39;96915.06;;;7.21;100.00
63715;BME280;49858;48.956;9.076;2024-02-23T04:36:07;96917.28;;;7.08;100.00
63715;BME280;49858;48.956;9.076;2024-02-23T04:38:35;96903.97;;;7.55;100.00
63715;BME280;49858;48.956;9.076;2024-02-23T04:41:04;96914.75;;;7.33;100.00
63715;BME280;49858;48.956;9.076;2024-02-23T04:43:33;96905.22;;;7.13;100.00
63715;BME280;49858;48.956;9.076;2024-02-23T04:46:00;96906.63;;;7.40;100.00
63715;BME280;49858;48.956;9.076;2024-02-23T04:48:29;96913.59;;;7.93;100.00
63715;BME280;49858;48.956;9.076;2024-02-23T04:50:59;96917.22;;;8.11;100.00
63715;BME280;49858;48.956;9.076;2024-02-23T04:53:26;96920.84;;;8.30;100.00
63715;BME280;49858;48.956;9.076;2024-02-23T04:55:55;96915.97;;;7.91;100.00
63715;BME280;49858;48.956;9.076;2024-02-23T04:58:23;96921.88;;;9.02;100.00
63715;BME280;49858;48.956;9.076;2024-02-23T05:00:51;96916.66;;;7.81;100.00
63715;BME280;49858;48.956;9.076;2024-02-23T05:03:18;96914.50;;;7.53;100.00
63715;BME280;49858;48.956;9.076;2024-02-23T05:05:47;96900.03;;;8.18;100.00
63715;BME280;49858;48.956;9.076;2024-02-23T05:08:18;96906.25;;;7.46;100.00
63715;BME280;49858;48.956;9.076;2024-02-23T05:10:47;96906.19;;;7.38;100.00
63715;BME280;49858;48.956;9.076;2024-02-23T05:13:15;96902.88;;;7.63;100.00
63715;BME280;49858;48.956;9.076;2024-02-23T05:15:42;96908.03;;;7.24;100.00
63715;BME280;49858;48.956;9.076;2024-02-23T05:18:10;96903.91;;;7.44;100.00
63715;BME280;49858;48.956;9.076;2024-02-23T05:20:38;96898.34;;;7.33;100.00
63715;BME280;49858;48.956;9.076;2024-02-23T05:23:06;96898.75;;;7.94;100.00
63715;BME280;49858;48.956;9.076;2024-02-23T05:25:35;96902.22;;;8.64;100.00
63715;BME280;49858;48.956;9.076;2024-02-23T05:28:04;96905.44;;;9.05;100.00
63715;BME280;49858;48.956;9.076;2024-02-23T05:30:32;96902.31;;;9.57;100.00
63715;BME280;49858;48.956;9.076;2024-02-23T05:32:59;96912.13;;;9.33;100.00
63715;BME280;49858;48.956;9.076;2024-02-23T05:35:29;96909.38;;;9.54;100.00
63715;BME280;49858;48.956;9.076;2024-02-23T05:37:57;96918.00;;;9.63;100.00
63715;BME280;49858;48.956;9.076;2024-02-23T05:40:25;96915.94;;;10.07;100.00
63715;BME280;49858;48.956;9.076;2024-02-23T05:42:54;96924.69;;;9.55;100.00
63715;BME280;49858;48.956;9.076;2024-02-23T05:45:22;96916.03;;;9.75;100.00
63715;BME280;49858;48.956;9.076;2024-02-23T05:47:50;96931.31;;;9.68;100.00
63715;BME280;49858;48.956;9.076;2024-02-23T05:50:18;96938.34;;;9.91;100.00
63715;BME280;49858;48.956;9.076;2024-02-23T05:52:46;96929.34;;;9.76;100.00
63715;BME280;49858;48.956;9.076;2024-02-23T05:55:15;96929.69;;;10.21;100.00
63715;BME280;49858;48.956;9.076;2024-02-23T05:57:43;96924.19;;;10.21;100.00
63715;BME280;49858;48.956;9.076;2024-02-23T06:00:13;96925.72;;;10.40;100.00
63715;BME280;49858;48.956;9.076;2024-02-23T06:02:42;96940.69;;;10.14;100.00
63715;BME280;49858;48.956;9.076;2024-02-23T06:05:11;96941.09;;;9.98;100.00
63715;BME280;49858;48.956;9.076;2024-02-23T06:07:39;96948.19;;;9.78;100.00
63715;BME280;49858;48.956;9.076;2024-02-23T06:10:07;96945.00;;;9.08;100.00
63715;BME280;49858;48.956;9.076;2024-02-23T06:12:35;96951.22;;;8.76;100.00
63715;BME280;49858;48.956;9.076;2024-02-23T06:15:04;96956.44;;;9.70;100.00
63715;BME280;49858;48.956;9.076;2024-02-23T06:17:34;96954.47;;;9.50;100.00
63715;BME280;49858;48.956;9.076;2024-02-23T06:20:04;96959.88;;;9.03;100.00
63715;BME280;49858;48.956;9.076;2024-02-23T06:22:33;96962.56;;;8.78;100.00
63715;BME280;49858;48.956;9.076;2024-02-23T06:25:02;96977.50;;;8.91;100.00
63715;BME280;49858;48.956;9.076;2024-02-23T06:27:30;96976.88;;;8.39;100.00
63715;BME280;49858;48.956;9.076;2024-02-23T06:29:58;96978.28;;;8.92;100.00
63715;BME280;49858;48.956;9.076;2024-02-23T06:32:25;96971.28;;;9.16;100.00
63715;BME280;49858;48.956;9.076;2024-02-23T06:34:55;96985.81;;;7.26;100.00
63715;BME280;49858;48.956;9.076;2024-02-23T06:37:26;96983.81;;;7.23;100.00
63715;BME280;49858;48.956;9.076;2024-02-23T06:39:54;96986.97;;;7.25;100.00
63715;BME280;49858;48.956;9.076;2024-02-23T06:42:22;96992.00;;;7.64;100.00
63715;BME280;49858;48.956;9.076;2024-02-23T06:44:50;96991.91;;;8.01;100.00
63715;BME280;49858;48.956;9.076;2024-02-23T06:47:18;96984.56;;;9.00;100.00
63715;BME280;49858;48.956;9.076;2024-02-23T06:49:46;96989.38;;;9.53;100.00
63715;BME280;49858;48.956;9.076;2024-02-23T06:52:15;96987.03;;;9.62;100.00
63715;BME280;49858;48.956;9.076;2024-02-23T06:54:44;96987.00;;;9.58;100.00
63715;BME280;49858;48.956;9.076;2024-02-23T06:57:12;96988.59;;;10.02;100.00
63715;BME280;49858;48.956;9.076;2024-02-23T06:59:40;96991.63;;;9.04;100.00
63715;BME280;49858;48.956;9.076;2024-02-23T07:02:08;96995.00;;;8.62;100.00
63715;BME280;49858;48.956;9.076;2024-02-23T07:04:36;96987.66;;;8.80;100.00
63715;BME280;49858;48.956;9.076;2024-02-23T07:07:04;96988.59;;;9.66;100.00
63715;BME280;49858;48.956;9.076;2024-02-23T07:09:35;96998.00;;;9.97;100.00
63715;BME280;49858;48.956;9.076;2024-02-23T07:12:04;96993.28;;;9.73;100.00
63715;BME280;49858;48.956;9.076;2024-02-23T07:14:32;97002.31;;;10.13;100.00
63715;BME280;49858;48.956;9.076;2024-02-23T07:17:00;97003.88;;;9.92;100.00
63715;BME280;49858;48.956;9.076;2024-02-23T07:19:28;97013.69;;;7.87;100.00
63715;BME280;49858;48.956;9.076;2024-02-23T07:21:56;96998.75;;;9.23;100.00
63715;BME280;49858;48.956;9.076;2024-02-23T07:24:24;96995.53;;;9.03;100.00
63715;BME280;49858;48.956;9.076;2024-02-23T07:26:53;97001.75;;;8.13;100.00
63715;BME280;49858;48.956;9.076;2024-02-23T07:29:21;97009.38;;;8.41;100.00
63715;BME280;49858;48.956;9.076;2024-02-23T07:31:49;97000.63;;;9.01;100.00
63715;BME280;49858;48.956;9.076;2024-02-23T07:34:17;97002.63;;;9.11;100.00
63715;BME280;49858;48.956;9.076;2024-02-23T07:36:45;96996.38;;;9.25;100.00
63715;BME280;49858;48.956;9.076;2024-02-23T07:39:12;97004.69;;;8.45;100.00
63715;BME280;49858;48.956;9.076;2024-02-23T07:41:40;97000.28;;;9.17;100.00
63715;BME280;49858;48.956;9.076;2024-02-23T07:44:10;96992.09;;;9.95;100.00
63715;BME280;49858;48.956;9.076;2024-02-23T07:46:38;96996.59;;;8.01;100.00
63715;BME280;49858;48.956;9.076;2024-02-23T07:49:06;97001.38;;;7.22;100.00
63715;BME280;49858;48.956;9.076;2024-02-23T07:51:34;97000.75;;;6.99;100.00
63715;BME280;49858;48.956;9.076;2024-02-23T07:54:01;96999.88;;;7.28;100.00
63715;BME280;49858;48.956;9.076;2024-02-23T07:56:29;96995.22;;;7.32;100.00
63715;BME280;49858;48.956;9.076;2024-02-23T07:58:57;96985.41;;;7.28;100.00
63715;BME280;49858;48.956;9.076;2024-02-23T08:01:27;96992.97;;;7.41;100.00
63715;BME280;49858;48.956;9.076;2024-02-23T08:03:55;96990.88;;;8.27;100.00
63715;BME280;49858;48.956;9.076;2024-02-23T08:06:23;96987.63;;;8.77;100.00
63715;BME280;49858;48.956;9.076;2024-02-23T08:08:52;96999.94;;;9.47;100.00
63715;BME280;49858;48.956;9.076;2024-02-23T08:11:21;97004.72;;;8.49;100.00
63715;BME280;49858;48.956;9.076;2024-02-23T08:13:49;97003.31;;;8.83;100.00
63715;BME280;49858;48.956;9.076;2024-02-23T08:16:18;97001.31;;;8.73;100.00
63715;BME280;49858;48.956;9.076;2024-02-23T08:18:47;97014.38;;;9.15;100.00
63715;BME280;49858;48.956;9.076;2024-02-23T08:21:15;97011.31;;;9.45;100.00
63715;BME280;49858;48.956;9.076;2024-02-23T08:23:43;97013.78;;;8.60;100.00
63715;BME280;49858;48.956;9.076;2024-02-23T08:26:11;97010.81;;;9.01;100.00
63715;BME280;49858;48.956;9.076;2024-02-23T08:28:39;97014.06;;;8.40;100.00
63715;BME280;49858;48.956;9.076;2024-02-23T08:31:07;97000.66;;;9.08;100.00
63715;BME280;49858;48.956;9.076;2024-02-23T08:33:35;96999.44;;;8.95;100.00
63715;BME280;49858;48.956;9.076;2024-02-23T08:36:06;96987.78;;;9.59;100.00
63715;BME280;49858;48.956;9.076;2024-02-23T08:38:34;96986.06;;;8.83;100.00
63715;BME280;49858;48.956;9.076;2024-02-23T08:41:02;96987.94;;;8.61;100.00
63715;BME280;49858;48.956;9.076;2024-02-23T08:43:30;96972.59;;;8.45;100.00
63715;BME280;49858;48.956;9.076;2024-02-23T08:45:58;96970.84;;;8.12;100.00
63715;BME280;49858;48.956;9.076;2024-02-23T08:48:33;96965.97;;;8.50;100.00
63715;BME280;49858;48.956;9.076;2024-02-23T08:51:01;96969.34;;;9.34;100.00
63715;BME280;49858;48.956;9.076;2024-02-23T08:53:30;96972.91;;;9.60;100.00
63715;BME280;49858;48.956;9.076;2024-02-23T08:55:58;96977.94;;;10.33;100.00
63715;BME280;49858;48.956;9.076;2024-02-23T08:58:27;96982.25;;;10.23;100.00
63715;BME280;49858;48.956;9.076;2024-02-23T09:00:55;96986.22;;;10.08;100.00
63715;BME280;49858;48.956;9.076;2024-02-23T09:03:23;96982.25;;;10.37;100.00
63715;BME280;49858;48.956;9.076;2024-02-23T09:05:51;96988.94;;;10.11;100.00
63715;BME280;49858;48.956;9.076;2024-02-23T09:08:19;96985.41;;;10.21;100.00
63715;BME280;49858;48.956;9.076;2024-02-23T09:10:48;96987.38;;;10.07;100.00
63715;BME280;49858;48.956;9.076;2024-02-23T09:13:16;96993.66;;;10.14;100.00
63715;BME280;49858;48.956;9.076;2024-02-23T09:15:44;96997.63;;;9.60;100.00
63715;BME280;49858;48.956;9.076;2024-02-23T09:18:13;96999.59;;;9.70;100.00
63715;BME280;49858;48.956;9.076;2024-02-23T09:20:40;96999.94;;;9.83;100.00
63715;BME280;49858;48.956;9.076;2024-02-23T09:23:08;96996.44;;;9.75;100.00
63715;BME280;49858;48.956;9.076;2024-02-23T09:25:37;97004.25;;;9.48;100.00
63715;BME280;49858;48.956;9.076;2024-02-23T09:28:09;96999.16;;;10.32;100.00
63715;BME280;49858;48.956;9.076;2024-02-23T09:30:38;96996.03;;;10.12;100.00
63715;BME280;49858;48.956;9.076;2024-02-23T09:33:06;96995.88;;;10.80;100.00
63715;BME280;49858;48.956;9.076;2024-02-23T09:35:35;96989.75;;;9.83;100.00
63715;BME280;49858;48.956;9.076;2024-02-23T09:38:03;96999.97;;;9.76;100.00
63715;BME280;49858;48.956;9.076;2024-02-23T09:40:31;96999.59;;;9.70;100.00
63715;BME280;49858;48.956;9.076;2024-02-23T09:42:59;96996.44;;;9.79;100.00
63715;BME280;49858;48.956;9.076;2024-02-23T09:45:28;96997.22;;;9.93;100.00
63715;BME280;49858;48.956;9.076;2024-02-23T09:47:57;96991.69;;;10.36;100.00
63715;BME280;49858;48.956;9.076;2024-02-23T09:50:26;96989.34;;;10.13;100.00
63715;BME280;49858;48.956;9.076;2024-02-23T09:52:56;97014.50;;;9.97;100.00
63715;BME280;49858;48.956;9.076;2024-02-23T09:55:26;96996.81;;;9.63;100.00
63715;BME280;49858;48.956;9.076;2024-02-23T09:57:55;97001.91;;;10.00;100.00
63715;BME280;49858;48.956;9.076;2024-02-23T10:00:28;96998.75;;;10.44;100.00
63715;BME280;49858;48.956;9.076;2024-02-23T10:02:57;97011.31;;;10.20;100.00
63715;BME280;49858;48.956;9.076;2024-02-23T10:05:29;97007.03;;;9.84;100.00
63715;BME280;49858;48.956;9.076;2024-02-23T10:08:04;96998.78;;;10.12;100.00
63715;BME280;49858;48.956;9.076;2024-02-23T10:10:33;97005.06;;;9.98;100.00
63715;BME280;49858;48.956;9.076;2024-02-23T10:13:03;97000.75;;;10.05;100.00
63715;BME280;49858;48.956;9.076;2024-02-23T10:15:33;97006.63;;;10.10;100.00
63715;BME280;49858;48.956;9.076;2024-02-23T10:18:06;96996.81;;;9.98;100.00
63715;BME280;49858;48.956;9.076;2024-02-23T10:20:34;97002.31;;;9.41;100.00
63715;BME280;49858;48.956;9.076;2024-02-23T10:23:03;97006.59;;;9.42;100.00
63715;BME280;49858;48.956;9.076;2024-02-23T10:25:33;97007.41;;;10.18;100.00
63715;BME280;49858;48.956;9.076;2024-02-23T10:28:01;97008.78;;;10.90;100.00
63715;BME280;49858;48.956;9.076;2024-02-23T10:30:29;97014.19;;;11.15;100.00
63715;BME280;49858;48.956;9.076;2024-02-23T10:32:59;97024.19;;;10.73;100.00
63715;BME280;49858;48.956;9.076;2024-02-23T10:35:27;97018.63;;;11.61;100.00
63715;BME280;49858;48.956;9.076;2024-02-23T10:37:57;97021.09;;;10.54;100.00
63715;BME280;49858;48.956;9.076;2024-02-23T10:40:26;97013.69;;;10.29;100.00
63715;BME280;49858;48.956;9.076;2024-02-23T10:43:00;97029.38;;;10.39;100.00
63715;BME280;49858;48.956;9.076;2024-02-23T10:45:30;97009.56;;;10.91;100.00
63715;BME280;49858;48.956;9.076;2024-02-23T10:48:00;97020.91;;;11.07;100.00
63715;BME280;49858;48.956;9.076;2024-02-23T10:50:29;97003.47;;;11.32;100.00
63715;BME280;49858;48.956;9.076;2024-02-23T10:53:00;96998.53;;;11.02;100.00
63715;BME280;49858;48.956;9.076;2024-02-23T10:55:29;97005.59;;;10.99;100.00
63715;BME280;49858;48.956;9.076;2024-02-23T10:58:00;97008.09;;;10.65;100.00
63715;BME280;49858;48.956;9.076;2024-02-23T11:00:29;97007.28;;;10.82;100.00
63715;BME280;49858;48.956;9.076;2024-02-23T11:02:59;97005.34;;;10.68;100.00
63715;BME280;49858;48.956;9.076;2024-02-23T11:05:30;96993.22;;;10.55;100.00
63715;BME280;49858;48.956;9.076;2024-02-23T11:07:59;97002.19;;;10.70;100.00
63715;BME280;49858;48.956;9.076;2024-02-23T11:10:27;97000.88;;;10.99;100.00
63715;BME280;49858;48.956;9.076;2024-02-23T11:12:58;96994.44;;;10.29;100.00
63715;BME280;49858;48.956;9.076;2024-02-23T11:15:28;96989.16;;;10.92;100.00
63715;BME280;49858;48.956;9.076;2024-02-23T11:17:55;96984.38;;;10.99;100.00
63715;BME280;49858;48.956;9.076;2024-02-23T11:20:34;96981.53;;;11.17;100.00
63715;BME280;49858;48.956;9.076;2024-02-23T11:23:13;96982.44;;;11.63;100.00
63715;BME280;49858;48.956;9.076;2024-02-23T11:25:41;96988.06;;;11.97;100.00
63715;BME280;49858;48.956;9.076;2024-02-23T11:28:08;96980.41;;;12.57;100.00
63715;BME280;49858;48.956;9.076;2024-02-23T11:30:36;96981.44;;;12.32;100.00
63715;BME280;49858;48.956;9.076;2024-02-23T11:33:08;96984.78;;;11.61;100.00
63715;BME280;49858;48.956;9.076;2024-02-23T11:35:46;96991.34;;;12.26;100.00
63715;BME280;49858;48.956;9.076;2024-02-23T11:38:16;96995.16;;;12.39;100.00
63715;BME280;49858;48.956;9.076;2024-02-23T11:40:47;96988.88;;;11.94;100.00
63715;BME280;49858;48.956;9.076;2024-02-23T11:43:16;96979.47;;;11.32;100.00
63715;BME280;49858;48.956;9.076;2024-02-23T11:45:46;96979.59;;;11.70;100.00
63715;BME280;49858;48.956;9.076;2024-02-23T11:48:14;96974.78;;;11.29;100.00
63715;BME280;49858;48.956;9.076;2024-02-23T11:50:44;96980.66;;;11.31;100.00
63715;BME280;49858;48.956;9.076;2024-02-23T11:53:12;96970.25;;;10.94;100.00
63715;BME280;49858;48.956;9.076;2024-02-23T11:55:40;96977.09;;;10.61;100.00
63715;BME280;49858;48.956;9.076;2024-02-23T11:58:08;96973.63;;;11.86;100.00
63715;BME280;49858;48.956;9.076;2024-02-23T12:00:44;96976.63;;;11.50;100.00
63715;BME280;49858;48.956;9.076;2024-02-23T12:03:13;96967.88;;;12.11;100.00
63715;BME280;49858;48.956;9.076;2024-02-23T12:05:41;96962.72;;;11.68;100.00
63715;BME280;49858;48.956;9.076;2024-02-23T12:08:11;96963.16;;;12.08;100.00
63715;BME280;49858;48.956;9.076;2024-02-23T12:10:39;96963.69;;;11.95;100.00
63715;BME280;49858;48.956;9.076;2024-02-23T12:13:07;96957.31;;;12.02;100.00
63715;BME280;49858;48.956;9.076;2024-02-23T12:15:35;96960.66;;;11.83;100.00
63715;BME280;49858;48.956;9.076;2024-02-23T12:18:07;96959.59;;;12.11;100.00
63715;BME280;49858;48.956;9.076;2024-02-23T12:20:38;96948.00;;;12.26;100.00
63715;BME280;49858;48.956;9.076;2024-02-23T12:23:06;96950.91;;;12.50;100.00
63715;BME280;49858;48.956;9.076;2024-02-23T12:25:38;96955.13;;;11.83;100.00
63715;BME280;49858;48.956;9.076;2024-02-23T12:28:08;96947.19;;;11.40;100.00
63715;BME280;49858;48.956;9.076;2024-02-23T12:30:36;96950.00;;;11.29;100.00
63715;BME280;49858;48.956;9.076;2024-02-23T12:33:05;96942.16;;;11.24;100.00
63715;BME280;49858;48.956;9.076;2024-02-23T12:35:34;96946.72;;;10.89;100.00
63715;BME280;49858;48.956;9.076;2024-02-23T12:38:03;96940.50;;;10.67;100.00
63715;BME280;49858;48.956;9.076;2024-02-23T12:40:31;96948.09;;;10.35;100.00
63715;BME280;49858;48.956;9.076;2024-02-23T12:43:00;96948.69;;;10.89;100.00
63715;BME280;49858;48.956;9.076;2024-02-23T12:45:28;96946.22;;;11.05;100.00
63715;BME280;49858;48.956;9.076;2024-02-23T12:47:56;96954.88;;;11.07;100.00
63715;BME280;49858;48.956;9.076;2024-02-23T12:50:24;96954.00;;;11.21;100.00
63715;BME280;49858;48.956;9.076;2024-02-23T12:52:53;96940.94;;;11.32;100.00
63715;BME280;49858;48.956;9.076;2024-02-23T12:55:21;96950.72;;;11.44;100.00
63715;BME280;49858;48.956;9.076;2024-02-23T12:57:49;96949.59;;;11.34;100.00
63715;BME280;49858;48.956;9.076;2024-02-23T13:00:19;96953.22;;;11.72;100.00
63715;BME280;49858;48.956;9.076;2024-02-23T13:02:47;96958.19;;;11.43;100.00
63715;BME280;49858;48.956;9.076;2024-02-23T13:05:14;96954.00;;;11.21;100.00